Time;durP1;ratioP1;P1;durP2;ratioP2;P2;SDS_P1;SDS_P2;PMS_P1;PMS_P2;Temp;Humidity;BMP_temperature;BMP_pressure;BME280_temperature;BME280_humidity;BME280_pressure;Samples;Min_cycle;Max_cycle;Signal;HPM_P1;HPM_P2
2021/05/04 00:01:19;;;;;;;;;;;5.10;99.90;;;;;;4992508;28;19933;-62
2021/05/04 00:03:45;;;;;;;;;;;5.00;99.90;;;;;;4992163;28;20019;-62
2021/05/04 00:06:11;;;;;;;;;;;5.00;99.90;;;;;;4992665;28;20337;-62
2021/05/04 00:08:37;;;;;;;;;;;5.00;99.90;;;;;;4992731;28;19973;-62
2021/05/04 00:11:03;;;;;;;;;;;5.00;99.90;;;;;;4987811;28;20036;-62
2021/05/04 00:13:29;;;;;;;;;;;5.00;99.90;;;;;;4992334;28;20020;-62
2021/05/04 00:15:55;;;;;;;;;;;4.90;99.90;;;;;;4992065;28;20439;-62
2021/05/04 00:18:20;;;;;;;;;;;4.90;99.90;;;;;;4997870;28;20022;-62
2021/05/04 00:20:47;;;;;;;;;;;4.90;99.90;;;;;;4979880;28;19934;-62
2021/05/04 00:23:13;;;;;;;;;;;4.90;99.90;;;;;;4989875;28;20028;-62
2021/05/04 00:25:39;;;;;;;;;;;4.90;99.90;;;;;;4992277;28;20012;-62
2021/05/04 00:28:05;;;;;;;;;;;4.90;99.90;;;;;;4992213;28;20470;-62
2021/05/04 00:30:31;;;;;;;;;;;4.90;99.90;;;;;;4992355;28;20382;-62
2021/05/04 00:32:56;;;;;;;;;;;4.90;99.90;;;;;;4992021;28;19965;-62
2021/05/04 00:35:23;;;;;;;;;;;4.80;99.90;;;;;;4992279;28;19925;-62
2021/05/04 00:37:48;;;;;;;;;;;4.80;99.90;;;;;;4991856;28;20020;-62
2021/05/04 00:40:15;;;;;;;;;;;4.90;99.90;;;;;;4992094;28;19933;-62
2021/05/04 00:42:40;;;;;;;;;;;4.90;99.90;;;;;;4992032;28;20401;-62
2021/05/04 00:45:07;;;;;;;;;;;4.90;99.90;;;;;;4991887;28;20453;-62
2021/05/04 00:47:33;;;;;;;;;;;4.90;99.90;;;;;;4991847;28;20032;-62
2021/05/04 00:49:59;;;;;;;;;;;4.80;99.90;;;;;;4992110;28;20069;-62
2021/05/04 00:52:25;;;;;;;;;;;4.90;99.90;;;;;;4991880;28;20024;-62
2021/05/04 00:54:51;;;;;;;;;;;4.90;99.90;;;;;;4991655;28;20433;-61
2021/05/04 00:57:17;;;;;;;;;;;4.90;99.90;;;;;;4991601;28;20028;-61
2021/05/04 00:59:44;;;;;;;;;;;4.90;99.90;;;;;;4991534;28;20008;-62
2021/05/04 01:02:10;;;;;;;;;;;4.90;99.90;;;;;;4991255;28;19945;-62
2021/05/04 01:04:38;;;;;;;;;;;4.90;99.90;;;;;;4991565;28;19930;-62
2021/05/04 01:07:03;;;;;;;;;;;4.90;99.90;;;;;;4991742;28;19972;-62
2021/05/04 01:09:29;;;;;;;;;;;4.90;99.90;;;;;;4991404;28;19929;-62
2021/05/04 01:11:56;;;;;;;;;;;4.90;99.90;;;;;;4991388;28;20387;-62
2021/05/04 01:14:23;;;;;;;;;;;4.80;99.90;;;;;;4991412;28;20056;-62
2021/05/04 01:16:49;;;;;;;;;;;4.80;99.90;;;;;;4995538;28;19926;-62
2021/05/04 01:19:19;;;;;;;;;;;4.80;99.90;;;;;;4991173;28;20417;-62
2021/05/04 01:21:45;;;;;;;;;;;4.80;99.90;;;;;;4989723;28;19929;-62
2021/05/04 01:24:11;;;;;;;;;;;4.70;99.90;;;;;;4991041;28;20008;-62
2021/05/04 01:26:41;;;;;;;;;;;4.70;99.90;;;;;;4991086;28;20469;-62
2021/05/04 01:29:07;;;;;;;;;;;4.70;99.90;;;;;;4990863;28;20442;-62
2021/05/04 01:31:33;;;;;;;;;;;4.60;99.90;;;;;;4991228;28;20012;-61
2021/05/04 01:33:59;;;;;;;;;;;4.60;99.90;;;;;;4990853;28;20349;-62
2021/05/04 01:36:25;;;;;;;;;;;4.50;99.90;;;;;;4990694;28;20190;-62
2021/05/04 01:38:51;;;;;;;;;;;4.50;99.90;;;;;;4990958;28;20025;-62
2021/05/04 01:41:17;;;;;;;;;;;4.50;99.90;;;;;;4990697;28;20077;-62
2021/05/04 01:43:43;;;;;;;;;;;4.50;99.90;;;;;;4990816;28;20052;-62
2021/05/04 01:46:09;;;;;;;;;;;4.40;99.90;;;;;;4989227;28;20012;-62
2021/05/04 01:48:35;;;;;;;;;;;4.40;99.90;;;;;;4991032;28;20372;-62
2021/05/04 01:51:00;;;;;;;;;;;4.40;99.90;;;;;;4990572;28;20041;-61
2021/05/04 01:53:26;;;;;;;;;;;4.30;99.90;;;;;;4990458;28;20384;-62
2021/05/04 01:55:52;;;;;;;;;;;4.30;99.90;;;;;;4990375;28;20024;-61
2021/05/04 01:58:18;;;;;;;;;;;4.30;99.90;;;;;;4990580;28;20028;-61
2021/05/04 02:00:44;;;;;;;;;;;4.30;99.90;;;;;;4989159;28;20360;-62
2021/05/04 02:03:10;;;;;;;;;;;4.30;99.90;;;;;;4988877;28;20413;-62
2021/05/04 02:05:36;;;;;;;;;;;4.30;99.90;;;;;;4990258;28;19983;-62
2021/05/04 02:08:02;;;;;;;;;;;4.30;99.90;;;;;;4990682;28;20013;-62
2021/05/04 02:10:28;;;;;;;;;;;4.20;99.90;;;;;;4985628;28;20064;-62
2021/05/04 02:12:54;;;;;;;;;;;4.20;99.90;;;;;;4990233;28;20016;-62
2021/05/04 02:15:20;;;;;;;;;;;4.20;99.90;;;;;;4989968;28;20012;-62
2021/05/04 02:17:46;;;;;;;;;;;4.10;99.90;;;;;;4995871;28;20016;-62
2021/05/04 02:20:12;;;;;;;;;;;4.10;99.90;;;;;;4989794;28;20016;-62
2021/05/04 02:22:38;;;;;;;;;;;4.10;99.90;;;;;;4989850;28;19926;-62
2021/05/04 02:25:04;;;;;;;;;;;4.00;99.90;;;;;;4990023;28;19936;-62
2021/05/04 02:27:30;;;;;;;;;;;4.10;99.90;;;;;;4990027;28;20738;-62
2021/05/04 02:29:56;;;;;;;;;;;4.00;99.90;;;;;;4989868;28;19936;-62
2021/05/04 02:32:22;;;;;;;;;;;4.00;99.90;;;;;;4989992;28;19929;-62
2021/05/04 02:34:48;;;;;;;;;;;4.00;99.90;;;;;;4989437;28;20024;-62
2021/05/04 02:37:14;;;;;;;;;;;3.90;99.90;;;;;;4989518;28;19930;-62
2021/05/04 02:39:40;;;;;;;;;;;3.90;99.90;;;;;;4989663;28;20422;-62
2021/05/04 02:42:06;;;;;;;;;;;3.90;99.90;;;;;;4989640;28;20396;-62
2021/05/04 02:44:32;;;;;;;;;;;3.80;99.90;;;;;;4989550;28;19930;-62
2021/05/04 02:46:58;;;;;;;;;;;3.80;99.90;;;;;;4989836;28;19930;-62
2021/05/04 02:49:24;;;;;;;;;;;3.80;99.90;;;;;;4989635;28;19937;-62
2021/05/04 02:51:50;;;;;;;;;;;3.80;99.90;;;;;;4988215;28;20389;-62
2021/05/04 02:54:16;;;;;;;;;;;3.70;99.90;;;;;;4989188;28;20040;-62
2021/05/04 02:56:42;;;;;;;;;;;3.70;99.90;;;;;;4989482;28;19992;-62
2021/05/04 02:59:08;;;;;;;;;;;3.70;99.90;;;;;;4989449;28;20017;-62
2021/05/04 03:01:34;;;;;;;;;;;3.70;99.90;;;;;;4989425;28;19930;-62
2021/05/04 03:03:59;;;;;;;;;;;3.70;99.90;;;;;;4989112;28;20028;-62
2021/05/04 03:06:25;;;;;;;;;;;3.70;99.90;;;;;;4989512;28;19944;-62
2021/05/04 03:08:51;;;;;;;;;;;3.60;99.90;;;;;;4988064;28;20436;-62
2021/05/04 03:11:17;;;;;;;;;;;3.60;99.90;;;;;;4988908;28;19952;-62
2021/05/04 03:13:43;;;;;;;;;;;3.60;99.90;;;;;;4989268;28;20016;-62
2021/05/04 03:16:09;;;;;;;;;;;3.70;99.90;;;;;;4989133;28;20397;-62
2021/05/04 03:18:35;;;;;;;;;;;3.70;99.90;;;;;;4993756;28;20025;-62
2021/05/04 03:21:01;;;;;;;;;;;3.70;99.90;;;;;;4988154;28;19965;-62
2021/05/04 03:23:27;;;;;;;;;;;3.70;99.90;;;;;;4989009;28;20024;-61
2021/05/04 03:25:53;;;;;;;;;;;3.70;99.90;;;;;;4989408;28;20465;-62
2021/05/04 03:28:19;;;;;;;;;;;3.70;99.90;;;;;;4989263;28;20029;-62
2021/05/04 03:30:46;;;;;;;;;;;3.70;99.90;;;;;;4988914;28;19937;-62
2021/05/04 03:33:12;;;;;;;;;;;3.60;99.90;;;;;;4989900;28;20382;-62
2021/05/04 03:35:38;;;;;;;;;;;3.70;99.90;;;;;;4993307;28;20012;-62
2021/05/04 03:38:04;;;;;;;;;;;3.70;99.90;;;;;;4993173;28;19930;-62
2021/05/04 03:40:30;;;;;;;;;;;3.70;99.90;;;;;;4992949;28;20025;-62
2021/05/04 03:42:56;;;;;;;;;;;3.70;99.90;;;;;;4992978;28;20032;-62
2021/05/04 03:45:22;;;;;;;;;;;3.70;99.90;;;;;;4992781;28;19926;-62
2021/05/04 03:47:48;;;;;;;;;;;3.70;99.90;;;;;;4992881;28;19985;-62
2021/05/04 03:50:15;;;;;;;;;;;3.80;99.90;;;;;;4993044;28;19929;-62
2021/05/04 03:52:42;;;;;;;;;;;3.80;99.90;;;;;;4992806;28;19930;-62
2021/05/04 03:55:08;;;;;;;;;;;3.90;99.90;;;;;;4992618;28;20384;-62
2021/05/04 03:57:34;;;;;;;;;;;4.00;99.90;;;;;;4992918;28;20309;-62
2021/05/04 04:00:00;;;;;;;;;;;4.10;99.90;;;;;;4992795;28;19926;-62
2021/05/04 04:02:26;;;;;;;;;;;4.10;99.90;;;;;;4992965;28;20423;-62
2021/05/04 04:04:52;;;;;;;;;;;4.20;99.90;;;;;;4992733;28;19926;-62
2021/05/04 04:07:18;;;;;;;;;;;4.30;99.90;;;;;;4992493;28;20414;-63
2021/05/04 04:09:44;;;;;;;;;;;4.40;99.90;;;;;;4992746;28;20024;-62
2021/05/04 04:12:09;;;;;;;;;;;4.50;99.90;;;;;;4992103;28;20016;-63
2021/05/04 04:14:35;;;;;;;;;;;4.50;99.90;;;;;;4992595;28;19929;-62
2021/05/04 04:17:01;;;;;;;;;;;4.50;99.90;;;;;;4998249;28;20379;-62
2021/05/04 04:19:27;;;;;;;;;;;4.50;99.90;;;;;;4992264;28;19934;-62
2021/05/04 04:21:53;;;;;;;;;;;4.50;99.90;;;;;;4992214;28;19941;-62
2021/05/04 04:24:19;;;;;;;;;;;4.60;99.90;;;;;;4992007;28;19953;-62
2021/05/04 04:26:45;;;;;;;;;;;4.60;99.90;;;;;;4992225;28;20441;-62
2021/05/04 04:29:12;;;;;;;;;;;4.60;99.90;;;;;;4992134;28;19930;-62
2021/05/04 04:31:37;;;;;;;;;;;4.70;99.90;;;;;;4991858;28;19926;-62
2021/05/04 04:34:04;;;;;;;;;;;4.70;99.90;;;;;;4992412;28;20028;-62
2021/05/04 04:36:29;;;;;;;;;;;4.60;99.90;;;;;;4991880;28;20012;-62
2021/05/04 04:38:55;;;;;;;;;;;4.70;99.90;;;;;;4991932;28;19926;-61
2021/05/04 04:41:21;;;;;;;;;;;4.70;99.90;;;;;;4992028;28;20036;-62
2021/05/04 04:43:47;;;;;;;;;;;4.70;99.90;;;;;;4991659;28;19929;-62
2021/05/04 04:46:13;;;;;;;;;;;4.70;99.90;;;;;;4992012;28;20410;-62
2021/05/04 04:48:39;;;;;;;;;;;4.80;99.90;;;;;;4991725;28;20016;-63
2021/05/04 04:51:05;;;;;;;;;;;4.80;99.90;;;;;;4991769;28;20052;-62
2021/05/04 04:53:31;;;;;;;;;;;4.80;99.90;;;;;;4991475;28;19937;-62
2021/05/04 04:55:56;;;;;;;;;;;4.90;99.90;;;;;;4991416;28;20137;-62
2021/05/04 04:58:22;;;;;;;;;;;4.90;99.90;;;;;;4991705;28;20381;-62
2021/05/04 05:00:48;;;;;;;;;;;5.00;99.90;;;;;;4991641;28;19957;-71
2021/05/04 05:03:14;;;;;;;;;;;5.00;99.90;;;;;;4991457;28;19930;-69
2021/05/04 05:05:40;;;;;;;;;;;5.00;99.90;;;;;;4989180;28;20012;-62
2021/05/04 05:08:06;;;;;;;;;;;5.10;99.90;;;;;;4990892;28;20020;-60
2021/05/04 05:10:32;;;;;;;;;;;5.10;99.90;;;;;;4985092;28;19930;-68
2021/05/04 05:12:59;;;;;;;;;;;5.20;99.90;;;;;;4991049;28;19926;-62
2021/05/04 05:15:25;;;;;;;;;;;5.30;99.90;;;;;;4989346;28;20348;-63
2021/05/04 05:17:51;;;;;;;;;;;5.40;99.90;;;;;;4995678;28;20060;-64
2021/05/04 05:20:17;;;;;;;;;;;5.50;99.90;;;;;;4991119;28;20021;-66
2021/05/04 05:22:43;;;;;;;;;;;5.70;99.60;;;;;;4993911;28;20048;-62
2021/05/04 05:25:09;;;;;;;;;;;5.70;99.00;;;;;;4991200;28;19963;-64
2021/05/04 05:27:35;;;;;;;;;;;5.90;98.30;;;;;;4991253;28;20012;-63
2021/05/04 05:30:04;;;;;;;;;;;6.10;98.20;;;;;;4991236;28;20091;-61
2021/05/04 05:32:30;;;;;;;;;;;6.20;97.80;;;;;;4991181;28;20017;-63
2021/05/04 05:34:55;;;;;;;;;;;6.40;97.50;;;;;;4991064;28;20851;-60
2021/05/04 05:37:21;;;;;;;;;;;6.60;96.30;;;;;;4991474;28;19930;-61
2021/05/04 05:39:47;;;;;;;;;;;6.70;95.30;;;;;;4991179;28;20025;-61
2021/05/04 05:42:14;;;;;;;;;;;6.90;94.50;;;;;;4991187;28;20050;-61
2021/05/04 05:44:40;;;;;;;;;;;7.10;93.90;;;;;;4990876;28;20028;-60
2021/05/04 05:47:06;;;;;;;;;;;7.30;93.20;;;;;;4990102;28;20480;-63
2021/05/04 05:49:33;;;;;;;;;;;7.60;92.90;;;;;;4995828;28;19977;-62
2021/05/04 05:51:59;;;;;;;;;;;7.90;92.40;;;;;;4988674;28;20401;-62
2021/05/04 05:54:26;;;;;;;;;;;8.20;91.40;;;;;;4990684;28;19929;-60
2021/05/04 05:56:52;;;;;;;;;;;8.50;91.10;;;;;;4989861;28;20060;-61
2021/05/04 05:59:18;;;;;;;;;;;8.80;88.10;;;;;;4990369;28;21586;-61
2021/05/04 06:01:44;;;;;;;;;;;8.90;84.20;;;;;;4990530;28;19929;-61
2021/05/04 06:04:10;;;;;;;;;;;9.10;83.60;;;;;;4992162;28;19973;-61
2021/05/04 06:06:36;;;;;;;;;;;9.40;83.90;;;;;;4991138;28;20020;-61
2021/05/04 06:09:02;;;;;;;;;;;9.60;82.90;;;;;;4990360;28;20085;-61
2021/05/04 06:11:28;;;;;;;;;;;9.80;81.10;;;;;;4985399;28;20025;-61
2021/05/04 06:13:54;;;;;;;;;;;10.10;78.90;;;;;;4989963;28;20020;-61
2021/05/04 06:16:20;;;;;;;;;;;10.30;78.00;;;;;;4991839;28;20408;-61
2021/05/04 06:18:46;;;;;;;;;;;10.60;76.70;;;;;;4994255;28;19925;-61
2021/05/04 06:21:12;;;;;;;;;;;11.00;74.40;;;;;;4989519;28;20064;-61
2021/05/04 06:23:38;;;;;;;;;;;11.40;72.80;;;;;;4993505;28;20388;-62
2021/05/04 06:26:04;;;;;;;;;;;11.80;69.60;;;;;;4989938;28;19934;-61
2021/05/04 06:28:30;;;;;;;;;;;12.10;68.10;;;;;;4989645;28;19926;-60
2021/05/04 06:30:56;;;;;;;;;;;12.70;66.70;;;;;;4986795;28;20465;-64
2021/05/04 06:33:22;;;;;;;;;;;13.40;63.90;;;;;;4988243;28;20036;-64
2021/05/04 06:35:49;;;;;;;;;;;14.30;61.00;;;;;;4989074;28;20000;-64
2021/05/04 06:38:16;;;;;;;;;;;15.40;57.90;;;;;;4989445;28;20472;-63
2021/05/04 06:40:43;;;;;;;;;;;16.30;55.20;;;;;;4989659;28;19932;-63
2021/05/04 06:43:09;;;;;;;;;;;16.60;51.60;;;;;;4989149;28;20036;-63
2021/05/04 06:45:36;;;;;;;;;;;16.50;50.80;;;;;;4989426;28;20011;-63
2021/05/04 06:48:03;;;;;;;;;;;16.40;51.00;;;;;;4988693;28;20194;-63
2021/05/04 06:50:29;;;;;;;;;;;16.00;51.50;;;;;;4989384;28;19926;-63
2021/05/04 06:52:55;;;;;;;;;;;16.10;52.10;;;;;;4989048;28;20373;-64
2021/05/04 06:55:21;;;;;;;;;;;15.90;51.80;;;;;;4989239;28;20020;-63
2021/05/04 06:57:47;;;;;;;;;;;15.80;52.30;;;;;;4987027;28;20028;-63
2021/05/04 07:00:14;;;;;;;;;;;15.90;52.90;;;;;;4988970;28;19933;-62
2021/05/04 07:02:39;;;;;;;;;;;16.10;51.80;;;;;;4988013;28;19929;-62
2021/05/04 07:05:06;;;;;;;;;;;16.40;51.70;;;;;;4988991;28;20016;-63
2021/05/04 07:07:32;;;;;;;;;;;16.50;51.10;;;;;;4989173;28;19929;-62
2021/05/04 07:09:59;;;;;;;;;;;16.80;50.80;;;;;;4989334;28;20357;-62
2021/05/04 07:12:25;;;;;;;;;;;17.00;50.10;;;;;;4996346;28;19938;-62
2021/05/04 07:14:50;;;;;;;;;;;17.10;49.60;;;;;;4991893;28;19972;-62
2021/05/04 07:17:16;;;;;;;;;;;17.30;49.20;;;;;;4993035;28;19973;-63
2021/05/04 07:19:43;;;;;;;;;;;17.40;49.40;;;;;;4989109;28;19973;-63
2021/05/04 07:22:10;;;;;;;;;;;17.50;48.90;;;;;;4988734;28;19930;-63
2021/05/04 07:24:37;;;;;;;;;;;17.70;48.30;;;;;;4989036;28;20028;-62
2021/05/04 07:27:03;;;;;;;;;;;17.70;47.80;;;;;;4988687;28;20393;-62
2021/05/04 07:29:29;;;;;;;;;;;17.80;46.70;;;;;;4988749;28;19969;-62
2021/05/04 07:31:54;;;;;;;;;;;17.80;46.30;;;;;;4991022;28;20684;-62
2021/05/04 07:34:20;;;;;;;;;;;18.00;47.20;;;;;;4988650;28;19969;-63
2021/05/04 07:36:46;;;;;;;;;;;18.20;46.20;;;;;;4988992;28;19984;-62
2021/05/04 07:39:12;;;;;;;;;;;18.20;46.20;;;;;;4988568;28;20048;-62
2021/05/04 07:41:39;;;;;;;;;;;18.50;46.80;;;;;;4988641;28;19926;-62
2021/05/04 07:44:06;;;;;;;;;;;18.60;47.00;;;;;;4988490;28;20382;-62
2021/05/04 07:46:32;;;;;;;;;;;18.60;46.40;;;;;;4989378;28;20286;-62
2021/05/04 07:48:58;;;;;;;;;;;18.60;45.70;;;;;;4987132;28;19926;-62
2021/05/04 07:51:24;;;;;;;;;;;18.50;45.20;;;;;;4989310;28;20024;-61
2021/05/04 07:53:50;;;;;;;;;;;18.60;45.40;;;;;;4989483;28;20021;-62
2021/05/04 07:56:16;;;;;;;;;;;18.90;45.30;;;;;;4989114;28;20033;-62
2021/05/04 07:58:42;;;;;;;;;;;18.80;43.50;;;;;;4988868;28;20398;-62
2021/05/04 08:01:08;;;;;;;;;;;18.70;44.40;;;;;;4988559;28;20032;-61
2021/05/04 08:03:34;;;;;;;;;;;18.80;43.90;;;;;;4988825;28;19930;-62
2021/05/04 08:06:00;;;;;;;;;;;18.90;43.40;;;;;;4988877;28;19930;-59
2021/05/04 08:08:26;;;;;;;;;;;18.90;44.00;;;;;;4988750;28;20032;-63
2021/05/04 08:10:52;;;;;;;;;;;19.00;44.20;;;;;;4988385;28;20025;-63
2021/05/04 08:13:20;;;;;;;;;;;18.90;43.20;;;;;;4988421;28;19930;-63
2021/05/04 08:15:47;;;;;;;;;;;18.80;43.80;;;;;;4988478;28;19926;-63
2021/05/04 08:18:14;;;;;;;;;;;19.00;44.10;;;;;;4993792;28;20781;-63
2021/05/04 08:20:47;;;;;;;;;;;19.20;42.80;;;;;;4991357;28;19953;-64
2021/05/04 08:23:14;;;;;;;;;;;19.30;42.80;;;;;;4996498;28;19936;-63
2021/05/04 08:25:40;;;;;;;;;;;19.30;41.80;;;;;;4992109;28;19980;-63
2021/05/04 08:28:06;;;;;;;;;;;19.30;42.90;;;;;;4991646;28;20016;-63
2021/05/04 08:30:32;;;;;;;;;;;19.50;41.70;;;;;;4991637;28;20016;-63
2021/05/04 08:32:58;;;;;;;;;;;19.50;41.90;;;;;;4991807;28;20024;-63
2021/05/04 08:35:25;;;;;;;;;;;19.30;42.20;;;;;;4990843;28;19961;-63
2021/05/04 08:37:52;;;;;;;;;;;19.30;42.00;;;;;;4991626;28;19949;-63
2021/05/04 08:40:17;;;;;;;;;;;19.30;41.20;;;;;;4991644;28;19933;-63
2021/05/04 08:42:43;;;;;;;;;;;19.30;40.70;;;;;;4991538;28;19973;-63
2021/05/04 08:45:10;;;;;;;;;;;19.30;40.80;;;;;;4990983;28;19925;-64
2021/05/04 08:47:36;;;;;;;;;;;19.40;40.60;;;;;;4991433;28;20049;-62
2021/05/04 08:50:03;;;;;;;;;;;19.50;40.20;;;;;;4991770;28;20382;-64
2021/05/04 08:52:29;;;;;;;;;;;19.40;39.10;;;;;;4991696;28;19979;-64
2021/05/04 08:54:55;;;;;;;;;;;19.50;38.80;;;;;;4991503;28;19969;-63
2021/05/04 08:57:21;;;;;;;;;;;19.70;39.20;;;;;;4991313;28;19965;-62
2021/05/04 08:59:46;;;;;;;;;;;20.20;39.20;;;;;;4991214;28;20496;-62
2021/05/04 09:02:13;;;;;;;;;;;20.40;37.30;;;;;;4991553;28;20056;-64
2021/05/04 09:04:42;;;;;;;;;;;20.60;37.10;;;;;;4991478;28;19930;-63
2021/05/04 09:07:12;;;;;;;;;;;20.90;37.50;;;;;;4990104;28;20016;-62
2021/05/04 09:09:58;;;;;;;;;;;21.20;36.70;;;;;;4991361;28;19930;-64
2021/05/04 09:12:31;;;;;;;;;;;21.80;35.80;;;;;;4991527;28;19934;-64
2021/05/04 09:15:03;;;;;;;;;;;22.60;34.70;;;;;;4990833;28;20762;-64
2021/05/04 09:22:46;;;;;;;;;;;23.50;33.60;;;;;;4995640;28;20912;-63
2021/05/04 09:25:28;;;;;;;;;;;24.10;32.70;;;;;;4989980;28;20028;-63
2021/05/04 09:27:59;;;;;;;;;;;24.80;31.50;;;;;;4990986;28;20480;-63
2021/05/04 09:30:25;;;;;;;;;;;25.50;31.00;;;;;;4990007;28;19936;-62
2021/05/04 09:32:51;;;;;;;;;;;26.40;30.50;;;;;;4990697;28;20016;-62
2021/05/04 09:35:17;;;;;;;;;;;27.10;29.60;;;;;;4990898;28;20076;-63
2021/05/04 09:37:44;;;;;;;;;;;27.50;29.60;;;;;;4990493;28;20056;-63
2021/05/04 09:40:20;;;;;;;;;;;28.70;29.00;;;;;;4991133;28;19930;-62
2021/05/04 09:42:46;;;;;;;;;;;29.80;28.50;;;;;;4990869;28;19930;-62
2021/05/04 09:45:23;;;;;;;;;;;30.90;27.30;;;;;;4990339;28;19930;-63
2021/05/04 09:48:08;;;;;;;;;;;30.90;27.00;;;;;;4989235;28;19932;-62
2021/05/04 09:50:46;;;;;;;;;;;31.00;27.10;;;;;;4990437;28;19996;-63
2021/05/04 09:53:14;;;;;;;;;;;31.20;26.90;;;;;;4990851;28;20728;-63
2021/05/04 09:55:53;;;;;;;;;;;31.70;26.40;;;;;;4990522;28;20412;-63
2021/05/04 09:58:29;;;;;;;;;;;32.20;26.70;;;;;;4990073;28;20048;-63
2021/05/04 10:00:55;;;;;;;;;;;32.10;26.70;;;;;;4990403;28;19963;-62
2021/05/04 10:03:21;;;;;;;;;;;32.00;26.60;;;;;;4990249;28;19930;-61
2021/05/04 10:05:47;;;;;;;;;;;32.50;26.60;;;;;;4987260;28;20508;-62
2021/05/04 10:08:13;;;;;;;;;;;32.60;26.30;;;;;;4989786;28;20350;-60
2021/05/04 10:10:39;;;;;;;;;;;32.40;26.20;;;;;;4982159;28;19936;-60
2021/05/04 10:13:05;;;;;;;;;;;32.60;26.00;;;;;;4991588;28;19973;-60
2021/05/04 10:15:32;;;;;;;;;;;33.30;26.30;;;;;;4989933;28;19964;-63
2021/05/04 10:17:57;;;;;;;;;;;34.10;26.30;;;;;;4996551;28;19984;-61
2021/05/04 10:20:24;;;;;;;;;;;34.40;25.70;;;;;;4990649;28;20406;-62
2021/05/04 10:22:50;;;;;;;;;;;34.00;25.50;;;;;;4994660;28;20017;-62
2021/05/04 10:25:17;;;;;;;;;;;33.90;26.00;;;;;;4990215;28;20279;-63
2021/05/04 10:27:44;;;;;;;;;;;34.10;25.80;;;;;;4990318;28;20405;-63
2021/05/04 10:30:10;;;;;;;;;;;34.60;25.50;;;;;;4990218;28;19926;-64
2021/05/04 10:32:53;;;;;;;;;;;33.70;25.40;;;;;;4988987;28;19930;-63
2021/05/04 10:35:40;;;;;;;;;;;32.20;25.80;;;;;;4989836;28;19936;-64
2021/05/04 10:38:10;;;;;;;;;;;31.10;26.30;;;;;;4989426;28;20739;-64
2021/05/04 10:40:40;;;;;;;;;;;30.80;26.50;;;;;;4989724;28;20012;-64
2021/05/04 10:43:21;;;;;;;;;;;30.80;26.50;;;;;;4989658;28;20028;-65
2021/05/04 10:45:51;;;;;;;;;;;30.90;26.60;;;;;;4987928;28;20396;-63
2021/05/04 10:48:17;;;;;;;;;;;30.60;26.30;;;;;;4989641;28;20532;-64
2021/05/04 10:50:48;;;;;;;;;;;30.70;26.30;;;;;;4989746;28;19976;-62
2021/05/04 10:53:15;;;;;;;;;;;30.60;26.30;;;;;;4988614;28;20368;-63
2021/05/04 10:55:47;;;;;;;;;;;30.70;26.20;;;;;;4989810;28;19937;-62
2021/05/04 10:58:13;;;;;;;;;;;30.90;26.30;;;;;;4989530;28;19933;-64
2021/05/04 11:00:49;;;;;;;;;;;30.90;26.50;;;;;;4987100;28;20009;-64
2021/05/04 11:03:33;;;;;;;;;;;30.50;25.80;;;;;;4989318;28;19937;-62
2021/05/04 11:06:03;;;;;;;;;;;30.10;26.50;;;;;;4992686;28;20279;-64
2021/05/04 11:08:44;;;;;;;;;;;29.60;26.40;;;;;;4989141;28;19932;-64
2021/05/04 11:11:22;;;;;;;;;;;29.20;26.70;;;;;;4984116;28;20401;-65
2021/05/04 11:13:48;;;;;;;;;;;28.80;27.30;;;;;;4984059;28;19933;-64
2021/05/04 11:16:34;;;;;;;;;;;28.40;27.10;;;;;;4989369;28;19976;-61
2021/05/04 11:19:08;;;;;;;;;;;27.80;27.30;;;;;;4991351;28;19972;-62
2021/05/04 11:21:43;;;;;;;;;;;27.10;27.10;;;;;;4989477;28;20009;-62
2021/05/04 11:24:14;;;;;;;;;;;26.40;27.70;;;;;;4988899;28;20032;-62
2021/05/04 11:26:51;;;;;;;;;;;25.60;28.20;;;;;;4988816;28;20013;-62
2021/05/04 11:29:18;;;;;;;;;;;25.10;28.20;;;;;;4989018;28;19977;-63
2021/05/04 11:31:45;;;;;;;;;;;24.60;29.20;;;;;;4988736;28;20032;-60
2021/05/04 11:34:30;;;;;;;;;;;24.30;29.20;;;;;;4989279;28;20025;-63
2021/05/04 11:36:56;;;;;;;;;;;24.10;29.20;;;;;;4987360;28;20009;-63
2021/05/04 11:39:22;;;;;;;;;;;23.90;29.40;;;;;;4989022;28;20083;-62
2021/05/04 11:41:58;;;;;;;;;;;23.70;29.50;;;;;;4988697;28;19929;-61
2021/05/04 11:44:33;;;;;;;;;;;23.40;29.50;;;;;;4988691;28;19937;-61
2021/05/04 11:47:18;;;;;;;;;;;23.10;30.20;;;;;;4988730;28;20020;-63
2021/05/04 11:49:46;;;;;;;;;;;22.80;30.20;;;;;;4986120;28;19952;-63
2021/05/04 11:52:14;;;;;;;;;;;22.20;31.00;;;;;;4988528;28;19973;-62
2021/05/04 11:54:39;;;;;;;;;;;22.00;31.20;;;;;;4989976;28;19926;-63
2021/05/04 11:57:05;;;;;;;;;;;21.80;31.40;;;;;;4991604;28;19941;-63
2021/05/04 11:59:31;;;;;;;;;;;21.80;32.70;;;;;;5000116;28;20016;-62
2021/05/04 12:01:57;;;;;;;;;;;21.90;31.70;;;;;;4992279;28;19934;-62
2021/05/04 12:04:42;;;;;;;;;;;21.90;31.80;;;;;;4992144;28;20037;-63
2021/05/04 12:07:08;;;;;;;;;;;21.80;32.60;;;;;;4992265;28;19984;-61
2021/05/04 12:09:35;;;;;;;;;;;21.70;32.50;;;;;;4991543;28;20377;-61
2021/05/04 12:12:13;;;;;;;;;;;21.70;31.50;;;;;;4987732;28;20020;-63
2021/05/04 12:14:55;;;;;;;;;;;21.80;32.10;;;;;;4991717;28;19926;-63
2021/05/04 12:17:24;;;;;;;;;;;21.90;33.00;;;;;;4995833;28;20413;-63
2021/05/04 12:19:49;;;;;;;;;;;22.00;32.50;;;;;;4992173;28;19948;-64
2021/05/04 12:22:16;;;;;;;;;;;22.00;32.00;;;;;;4993552;28;19930;-62
2021/05/04 12:24:42;;;;;;;;;;;21.90;32.70;;;;;;4994617;28;19930;-61
2021/05/04 12:27:08;;;;;;;;;;;21.80;32.20;;;;;;4990700;28;20020;-60
2021/05/04 12:29:34;;;;;;;;;;;21.80;32.10;;;;;;4992120;28;20024;-60
2021/05/04 12:32:00;;;;;;;;;;;21.70;32.90;;;;;;4990424;28;19926;-60
2021/05/04 12:34:26;;;;;;;;;;;21.50;32.10;;;;;;4991155;28;20028;-60
2021/05/04 12:36:54;;;;;;;;;;;21.40;32.10;;;;;;4992063;28;20301;-60
2021/05/04 12:39:28;;;;;;;;;;;21.30;32.50;;;;;;4990886;28;19930;-60
2021/05/04 12:42:00;;;;;;;;;;;21.30;32.60;;;;;;4991724;28;19965;-60
2021/05/04 12:44:28;;;;;;;;;;;21.20;32.90;;;;;;4992021;28;19984;-60
2021/05/04 12:47:02;;;;;;;;;;;21.00;33.00;;;;;;4990832;28;20428;-61
2021/05/04 12:49:38;;;;;;;;;;;20.90;33.50;;;;;;4991835;28;19934;-60
2021/05/04 12:52:11;;;;;;;;;;;21.10;33.50;;;;;;4990642;28;20492;-61
2021/05/04 12:54:37;;;;;;;;;;;21.30;33.60;;;;;;4995546;28;20447;-61
2021/05/04 12:57:16;;;;;;;;;;;21.40;32.70;;;;;;4990923;28;20044;-61
2021/05/04 12:59:42;;;;;;;;;;;21.60;32.60;;;;;;4991846;28;19980;-61
2021/05/04 13:02:08;;;;;;;;;;;21.60;32.20;;;;;;4991449;28;20398;-62
2021/05/04 13:04:48;;;;;;;;;;;21.60;32.50;;;;;;4991738;28;20040;-61
2021/05/04 13:07:23;;;;;;;;;;;21.60;33.30;;;;;;4991854;28;20005;-60
2021/05/04 13:10:00;;;;;;;;;;;21.50;32.90;;;;;;4990857;28;19985;-59
2021/05/04 13:15:36;;;;;;;;;;;21.10;33.60;;;;;;4991453;28;19925;-59
2021/05/04 13:34:32;;;;;;;;;;;20.80;34.60;;;;;;4990900;28;20364;-63
2021/05/04 13:37:00;;;;;;;;;;;20.90;34.00;;;;;;4990806;28;20320;-62
2021/05/04 13:48:05;;;;;;;;;;;21.00;34.10;;;;;;4999510;28;20020;-61
2021/05/04 13:50:31;;;;;;;;;;;20.80;34.20;;;;;;4990525;28;20457;-62
2021/05/04 13:52:57;;;;;;;;;;;20.80;34.90;;;;;;4990227;28;20048;-62
2021/05/04 13:55:23;;;;;;;;;;;21.00;34.80;;;;;;4988644;28;20457;-62
2021/05/04 13:57:52;;;;;;;;;;;21.10;34.60;;;;;;4990765;28;20041;-64
2021/05/04 14:01:16;;;;;;;;;;;21.00;33.20;;;;;;4992466;28;19933;-62
2021/05/04 14:03:25;;;;;;;;;;;20.90;33.90;;;;;;4984233;28;20024;-63
2021/05/04 14:06:15;;;;;;;;;;;20.80;34.00;;;;;;4988490;28;20696;-63
2021/05/04 14:27:14;;;;;;;;;;;20.70;34.90;;;;;;4988967;28;19976;-73
2021/05/04 14:29:39;;;;;;;;;;;20.70;35.60;;;;;;4989346;28;19950;-73
2021/05/04 14:32:05;;;;;;;;;;;20.80;36.40;;;;;;4990219;28;20321;-72
2021/05/04 14:34:33;;;;;;;;;;;20.80;36.00;;;;;;4990254;28;19926;-70
2021/05/04 14:37:42;;;;;;;;;;;20.90;36.00;;;;;;4989600;28;20017;-67
2021/05/04 14:56:18;;;;;;;;;;;20.50;36.40;;;;;;4989447;28;19937;-69
2021/05/04 15:03:37;;;;;;;;;;;20.30;37.60;;;;;;4989514;28;19984;-68
2021/05/04 15:06:03;;;;;;;;;;;20.20;37.60;;;;;;4989590;28;19936;-68
2021/05/04 15:08:30;;;;;;;;;;;20.20;37.80;;;;;;4989470;28;20024;-64
2021/05/04 15:10:55;;;;;;;;;;;20.20;37.80;;;;;;4981046;28;19926;-74
2021/05/04 15:13:21;;;;;;;;;;;20.30;37.60;;;;;;4989270;28;19934;-68
2021/05/04 15:23:33;;;;;;;;;;;20.20;38.60;;;;;;4987241;28;19965;-71
2021/05/04 15:25:58;;;;;;;;;;;20.10;39.10;;;;;;4987097;28;19929;-78
2021/05/04 15:28:24;;;;;;;;;;;19.80;38.40;;;;;;4988992;28;20035;-75
2021/05/04 15:30:53;;;;;;;;;;;19.60;38.80;;;;;;4988787;28;20305;-73
2021/05/04 15:33:20;;;;;;;;;;;19.40;39.40;;;;;;4988948;28;19953;-72
2021/05/04 15:35:46;;;;;;;;;;;19.30;40.50;;;;;;4997630;28;19933;-72
2021/05/04 15:38:12;;;;;;;;;;;19.00;40.90;;;;;;4989006;28;20012;-73
2021/05/04 15:40:38;;;;;;;;;;;18.80;40.70;;;;;;4988990;28;20376;-73
2021/05/04 15:43:05;;;;;;;;;;;18.50;41.10;;;;;;4988950;28;20458;-70
2021/05/04 15:45:37;;;;;;;;;;;18.30;41.50;;;;;;4988742;28;19976;-69
2021/05/04 15:48:09;;;;;;;;;;;18.10;42.20;;;;;;4989294;28;20353;-77